Time;durP1;ratioP1;P1;durP2;ratioP2;P2;SDS_P1;SDS_P2;PMS_P1;PMS_P2;Temp;Humidity;BMP_temperature;BMP_pressure;BME280_temperature;BME280_humidity;BME280_pressure;Samples;Min_cycle;Max_cycle;Signal;HPM_P1;HPM_P2
2024/04/13 00:00:06;;;;;;;4.88;2.00;;;14.80;1.00;;;;;;5147617;27;36617;-87
2024/04/13 00:02:35;;;;;;;5.50;2.35;;;14.80;1.00;;;;;;5188062;27;39134;-87
2024/04/13 00:05:01;;;;;;;3.22;2.25;;;14.70;1.00;;;;;;5186623;27;39424;-83
2024/04/13 00:07:30;;;;;;;4.13;2.40;;;14.70;1.00;;;;;;5181606;27;38794;-88
2024/04/13 00:09:56;;;;;;;5.13;1.90;;;14.70;1.00;;;;;;5187929;27;37266;-89
2024/04/13 00:12:22;;;;;;;3.88;2.22;;;14.60;1.00;;;;;;5178351;27;39200;-85
2024/04/13 00:14:55;;;;;;;5.50;1.80;;;14.60;1.00;;;;;;5189629;27;37130;-84
2024/04/13 00:17:24;;;;;;;3.97;2.05;;;14.60;1.00;;;;;;5211532;27;38022;-86
2024/04/13 00:19:51;;;;;;;2.70;1.80;;;14.60;1.00;;;;;;5185282;27;38847;-87
2024/04/13 00:22:17;;;;;;;4.10;2.13;;;14.60;1.00;;;;;;5166695;27;40216;-87
2024/04/13 00:24:46;;;;;;;5.85;2.00;;;14.50;1.00;;;;;;5168280;27;37392;-86
2024/04/13 00:27:13;;;;;;;3.90;1.85;;;14.50;1.00;;;;;;5177129;27;39384;-88
2024/04/13 00:29:39;;;;;;;4.32;2.20;;;14.50;1.00;;;;;;5176856;27;36602;-87
2024/04/13 00:32:07;;;;;;;4.13;2.17;;;14.50;1.00;;;;;;5200897;27;39771;-84
2024/04/13 00:34:34;;;;;;;4.15;2.80;;;14.50;1.00;;;;;;5173727;27;41136;-83
2024/04/13 00:37:06;;;;;;;3.97;2.80;;;14.40;1.00;;;;;;5169103;27;37703;-88
2024/04/13 00:39:32;;;;;;;3.60;2.20;;;14.40;1.00;;;;;;5158757;27;48115;-87
2024/04/13 00:41:59;;;;;;;4.53;2.63;;;14.30;1.00;;;;;;5175045;27;39805;-87
2024/04/13 00:44:25;;;;;;;4.10;2.42;;;14.30;1.00;;;;;;5192988;27;37518;-86
2024/04/13 00:47:04;;;;;;;3.30;2.58;;;14.30;1.00;;;;;;5166158;27;38643;-88
2024/04/13 00:49:37;;;;;;;3.05;2.33;;;14.30;1.00;;;;;;5163702;27;48034;-86
2024/04/13 00:52:07;;;;;;;4.57;2.50;;;14.30;1.00;;;;;;5174317;27;38786;-87
2024/04/13 00:54:36;;;;;;;3.80;2.30;;;14.30;1.00;;;;;;5201874;27;37533;-85
2024/04/13 00:57:03;;;;;;;5.38;2.50;;;14.20;1.00;;;;;;5199348;27;37783;-88
2024/04/13 00:59:30;;;;;;;5.13;2.00;;;14.20;1.00;;;;;;5174028;27;36244;-89
2024/04/13 01:05:13;;;;;;;7.47;3.20;;;14.10;1.00;;;;;;5467216;22;20044;-81
2024/04/13 01:08:21;;;;;;;5.03;2.10;;;14.20;1.00;;;;;;5147643;27;48770;-82
2024/04/13 02:36:14;;;;;;;5.45;3.65;;;13.70;13.60;;;;;;5061644;27;50192;-82
2024/04/13 02:39:07;;;;;;;7.30;3.55;;;13.60;17.00;;;;;;5101759;27;50274;-82
2024/04/13 02:42:36;;;;;;;4.40;3.53;;;13.60;19.00;;;;;;5144266;27;50289;-81
2024/04/13 03:13:45;;;;;;;;;;;13.40;35.40;;;;;;5621312;22;20665;-81
2024/04/13 03:16:12;;;;;;;7.18;4.65;;;13.40;33.90;;;;;;5631821;22;39594;-79
2024/04/13 03:18:43;;;;;;;10.40;4.20;;;13.30;35.30;;;;;;5176449;27;39652;-79
2024/04/13 03:21:11;;;;;;;5.38;3.55;;;13.40;33.30;;;;;;5190758;27;38008;-79
2024/04/13 03:23:40;;;;;;;4.47;3.33;;;13.40;35.50;;;;;;5190290;27;38127;-78
2024/04/13 03:26:06;;;;;;;6.95;3.83;;;13.30;40.90;;;;;;5197801;27;38050;-79
2024/04/13 03:28:35;;;;;;;6.97;3.45;;;13.30;40.10;;;;;;5218713;27;37136;-80
2024/04/13 03:31:01;;;;;;;7.10;3.72;;;13.30;41.30;;;;;;5193546;27;38602;-80
2024/04/13 03:33:40;;;;;;;9.55;4.00;;;13.30;43.20;;;;;;5194406;27;47539;-78
2024/04/13 03:36:07;;;;;;;5.40;3.72;;;13.30;43.80;;;;;;5188288;27;36973;-79
2024/04/13 03:38:36;;;;;;;6.47;3.83;;;13.20;44.10;;;;;;5217726;27;40044;-79
2024/04/13 03:41:07;;;;;;;5.93;4.28;;;13.20;44.10;;;;;;5192201;27;38006;-79
2024/04/13 03:43:37;;;;;;;9.80;4.82;;;13.20;46.00;;;;;;5190499;27;39551;-80
2024/04/13 03:46:04;;;;;;;7.88;4.28;;;13.20;48.50;;;;;;5200523;27;36812;-79
2024/04/13 03:48:41;;;;;;;7.10;4.68;;;13.20;49.40;;;;;;5190867;27;37786;-79
2024/04/13 03:51:08;;;;;;;7.00;3.97;;;13.20;49.50;;;;;;5188207;27;36075;-78
2024/04/13 03:53:35;;;;;;;9.32;4.65;;;13.20;48.30;;;;;;5183909;27;37565;-78
2024/04/13 03:56:04;;;;;;;7.65;3.95;;;13.20;47.80;;;;;;5189098;27;38212;-79
2024/04/13 03:58:33;;;;;;;6.35;3.90;;;13.20;49.60;;;;;;5183079;27;50045;-79
2024/04/13 04:00:59;;;;;;;4.88;4.05;;;13.10;53.60;;;;;;5196657;27;37589;-79
2024/04/13 04:03:25;;;;;;;4.68;3.38;;;13.10;54.60;;;;;;5181509;27;38035;-79
2024/04/13 04:05:56;;;;;;;6.25;3.70;;;13.10;56.70;;;;;;5192634;27;37615;-79
2024/04/13 04:08:22;;;;;;;5.28;3.58;;;13.10;57.20;;;;;;5183078;27;38428;-79
2024/04/13 04:10:48;;;;;;;7.53;4.32;;;13.10;57.80;;;;;;5195527;27;36024;-80
2024/04/13 04:13:17;;;;;;;6.97;3.72;;;13.10;57.90;;;;;;5190057;27;39327;-78
2024/04/13 04:15:47;;;;;;;5.57;3.33;;;13.10;59.00;;;;;;5207988;27;38985;-79
2024/04/13 04:18:16;;;;;;;5.43;4.15;;;13.10;58.70;;;;;;5193564;27;39516;-79
2024/04/13 04:20:46;;;;;;;5.13;3.53;;;13.10;60.00;;;;;;5192921;27;37609;-80
2024/04/13 04:23:13;;;;;;;6.13;3.85;;;13.10;59.40;;;;;;5201597;27;37735;-78
2024/04/13 04:25:40;;;;;;;5.20;3.40;;;13.00;59.70;;;;;;5185539;27;39051;-79
2024/04/13 04:28:07;;;;;;;7.55;3.28;;;13.00;60.00;;;;;;5181416;27;37124;-78
2024/04/13 04:30:33;;;;;;;8.00;3.97;;;13.00;61.10;;;;;;5191556;27;37142;-79
2024/04/13 04:33:03;;;;;;;5.55;3.63;;;13.00;60.30;;;;;;5188353;27;39484;-79
2024/04/13 04:35:29;;;;;;;7.40;3.75;;;13.00;60.40;;;;;;5190411;27;47673;-79
2024/04/13 04:37:57;;;;;;;6.50;3.85;;;12.90;64.40;;;;;;5190109;27;36657;-78
2024/04/13 04:40:23;;;;;;;7.88;3.75;;;13.00;64.40;;;;;;5188569;27;38874;-79
2024/04/13 04:42:59;;;;;;;5.20;3.85;;;12.90;66.50;;;;;;5195391;27;38896;-79
2024/04/13 04:45:25;;;;;;;8.32;4.65;;;12.90;68.90;;;;;;5179430;27;37986;-78
2024/04/13 04:47:54;;;;;;;6.60;4.00;;;12.90;73.20;;;;;;5175330;27;38161;-80
2024/04/13 04:50:21;;;;;;;9.57;4.30;;;12.80;76.00;;;;;;5182294;27;37573;-79
2024/04/13 04:52:47;;;;;;;6.57;3.67;;;12.80;80.70;;;;;;5180306;27;38768;-80
2024/04/13 04:55:25;;;;;;;7.45;3.95;;;12.80;82.80;;;;;;5184888;27;38011;-79
2024/04/13 04:57:54;;;;;;;7.78;3.95;;;12.80;84.80;;;;;;5215681;27;37272;-81
2024/04/13 06:28:57;;;;;;;7.85;5.18;;;13.80;86.00;;;;;;5708205;22;19934;-76
2024/04/13 06:39:58;;;;;;;9.07;5.45;;;14.00;86.00;;;;;;5497457;22;20442;-78
2024/04/13 07:06:14;;;;;;;9.82;6.25;;;14.70;46.20;;;;;;5170652;22;20511;-77
2024/04/13 07:35:25;;;;;;;14.48;6.57;;;15.60;9.70;;;;;;5776192;22;19932;-81
2024/04/13 07:38:01;;;;;;;11.38;6.25;;;15.60;1.00;;;;;;5437582;22;50050;-76
2024/04/13 07:40:27;;;;;;;9.85;6.63;;;15.60;4.50;;;;;;5165828;27;47894;-75
2024/04/13 07:44:16;;;;;;;;;;;;;;;;;;;;;
2024/04/13 10:13:43;;;;;;;12.02;8.02;;;20.40;1.00;;;;;;5748540;22;20032;-82
2024/04/13 10:19:29;;;;;;;13.60;8.27;;;20.20;1.00;;;;;;4330992;25;20155;-83
2024/04/13 10:22:19;;;;;;;13.43;8.35;;;20.20;1.00;;;;;;5156647;27;39049;-83
2024/04/13 10:24:53;;;;;;;14.02;7.70;;;20.50;1.00;;;;;;5175201;27;50194;-82
2024/04/13 10:27:31;;;;;;;11.55;8.95;;;20.70;1.00;;;;;;5153722;27;39726;-83
2024/04/13 10:30:11;;;;;;;9.57;7.00;;;20.70;1.00;;;;;;5127849;27;42530;-82
2024/04/13 10:32:48;;;;;;;13.93;7.47;;;21.10;1.00;;;;;;5124627;27;48813;-83
2024/04/13 10:35:26;;;;;;;10.68;7.35;;;21.20;1.00;;;;;;5150595;27;39740;-82
2024/04/13 10:38:02;;;;;;;10.05;8.10;;;21.20;1.00;;;;;;5111643;27;39491;-81
2024/04/13 10:41:32;;;;;;;11.50;8.13;;;21.50;99.90;;;;;;5141781;27;50257;-82
2024/04/13 10:44:05;;;;;;;16.35;7.47;;;21.40;99.90;;;;;;5160147;27;50580;-80
2024/04/13 10:46:41;;;;;;;11.82;7.53;;;21.30;99.90;;;;;;5149437;27;50551;-78
2024/04/13 10:49:30;;;;;;;8.65;7.40;;;21.50;1.00;;;;;;5155678;27;38773;-82
2024/04/13 10:52:17;;;;;;;12.43;7.47;;;21.70;99.90;;;;;;5105047;27;38244;-80
2024/04/13 10:55:21;;;;;;;13.80;7.50;;;22.00;99.90;;;;;;5056517;27;50356;-77
2024/04/13 10:57:52;;;;;;;10.30;6.95;;;21.90;99.90;;;;;;5077338;28;50417;-80
2024/04/13 11:00:49;;;;;;;13.40;7.68;;;22.00;92.20;;;;;;5048389;28;39079;-81
2024/04/13 11:03:34;;;;;;;13.07;7.70;;;22.00;1.00;;;;;;5055855;28;49126;-80
2024/04/13 11:06:10;;;;;;;13.60;7.55;;;22.10;92.40;;;;;;5055068;28;40435;-81
2024/04/13 11:08:52;;;;;;;9.02;6.63;;;22.40;99.90;;;;;;5059820;28;37563;-81
2024/04/13 11:11:34;;;;;;;9.82;7.38;;;22.20;99.90;;;;;;5096414;27;39941;-80
2024/04/13 11:14:12;;;;;;;15.05;7.38;;;22.30;99.90;;;;;;5066803;28;38445;-82
2024/04/13 11:16:59;;;;;;;12.45;7.47;;;22.30;1.00;;;;;;5110722;27;50395;-79
2024/04/13 11:19:33;;;;;;;14.48;7.03;;;22.50;1.00;;;;;;5021701;27;35910;-80
2024/04/13 11:22:19;;;;;;;15.13;7.72;;;22.50;99.90;;;;;;5084501;28;42093;-81
2024/04/13 11:25:31;;;;;;;9.80;6.85;;;22.50;99.90;;;;;;5051724;27;49391;-81
2024/04/13 11:28:07;;;;;;;10.55;6.68;;;22.60;1.00;;;;;;5221480;22;50233;-81
2024/04/13 11:30:41;;;;;;;9.70;6.53;;;22.60;1.00;;;;;;5216877;27;49197;-80
2024/04/13 11:33:15;;;;;;;14.43;6.57;;;22.60;1.00;;;;;;5183271;27;39370;-80
2024/04/13 11:36:10;;;;;;;9.88;6.40;;;22.50;1.00;;;;;;5192128;27;39703;-81
2024/04/13 11:38:37;;;;;;;19.17;5.60;;;22.70;1.00;;;;;;5178618;22;49086;-82
2024/04/13 11:44:07;;;;;;;5.95;4.68;;;23.10;1.00;;;;;;5276484;22;20033;-83
2024/04/13 11:46:33;;;;;;;6.78;4.82;;;23.30;99.90;;;;;;5170142;27;38813;-83
2024/04/13 11:48:59;;;;;;;7.82;4.50;;;23.40;1.00;;;;;;5168999;27;37111;-86
2024/04/13 11:51:27;;;;;;;5.95;4.97;;;23.50;99.90;;;;;;5140521;27;36323;-85
2024/04/13 11:56:57;;;;;;;5.78;4.22;;;23.30;1.00;;;;;;5208820;22;20040;-85
2024/04/13 12:05:47;;;;;;;7.35;4.18;;;23.40;99.90;;;;;;5195455;22;20231;-82
2024/04/13 12:08:13;;;;;;;5.47;3.60;;;23.30;1.00;;;;;;5205915;27;39018;-83
2024/04/13 12:10:40;;;;;;;6.72;3.92;;;23.50;1.00;;;;;;5193873;27;39470;-82
2024/04/13 12:18:51;;;;;;;6.15;3.78;;;23.10;1.00;;;;;;5300442;22;20079;-81
2024/04/13 12:30:03;;;;;;;7.38;3.92;;;23.20;1.00;;;;;;5355948;22;20496;-84
2024/04/13 13:00:02;;;;;;;5.20;2.50;;;23.70;99.90;;;;;;5186105;22;20073;-86
2024/04/13 13:02:29;;;;;;;;;;;23.90;1.00;;;;;;5197288;27;40511;-86
2024/04/13 13:04:59;;;;;;;4.97;2.42;;;23.80;1.00;;;;;;5172799;27;37695;-88
2024/04/13 13:10:35;;;;;;;4.18;2.03;;;24.00;1.00;;;;;;4433193;25;20019;-87
2024/04/13 13:13:03;;;;;;;3.97;2.72;;;24.00;1.00;;;;;;5159456;27;38011;-87
2024/04/13 13:18:14;;;;;;;5.18;2.28;;;24.20;99.90;;;;;;4416569;25;20134;-87
2024/04/13 13:20:43;;;;;;;3.38;2.50;;;24.20;1.00;;;;;;5187410;27;34919;-85
2024/04/13 13:23:10;;;;;;;4.35;2.15;;;24.00;99.90;;;;;;5184997;27;37775;-84
2024/04/13 13:25:36;;;;;;;4.95;2.50;;;23.80;1.00;;;;;;5181502;27;37040;-84
2024/04/13 13:28:03;;;;;;;6.03;2.40;;;23.90;1.00;;;;;;5182637;27;37099;-85
2024/04/13 13:30:36;;;;;;;5.47;2.50;;;24.00;1.00;;;;;;5170057;27;36145;-86
2024/04/13 13:33:08;;;;;;;5.10;2.58;;;24.20;99.90;;;;;;5172439;27;39201;-87
2024/04/13 13:35:36;;;;;;;6.53;2.80;;;24.30;99.90;;;;;;5172371;27;39741;-86
2024/04/13 13:38:03;;;;;;;6.55;2.85;;;24.20;1.00;;;;;;5171760;27;37460;-86
2024/04/13 13:40:32;;;;;;;4.30;2.47;;;24.10;99.90;;;;;;5176135;27;37509;-88
2024/04/13 13:42:59;;;;;;;5.18;3.10;;;24.10;99.90;;;;;;5170793;27;40132;-88
2024/04/13 13:45:29;;;;;;;3.65;2.50;;;23.90;1.00;;;;;;5175329;27;37450;-84
2024/04/13 13:50:50;;;;;;;3.10;2.33;;;23.60;99.90;;;;;;5190414;22;20036;-84
2024/04/13 13:53:36;;;;;;;5.70;2.45;;;23.60;1.00;;;;;;5169199;27;38868;-84
2024/04/13 13:56:03;;;;;;;8.50;3.10;;;23.70;1.00;;;;;;5182973;27;38301;-89
2024/04/13 13:58:31;;;;;;;4.93;2.60;;;23.50;1.00;;;;;;5196769;27;37578;-85
2024/04/13 14:01:21;;;;;;;4.47;2.60;;;23.40;1.00;;;;;;5139379;22;38592;-80
2024/04/13 14:15:03;;;;;;;5.25;2.53;;;23.40;99.90;;;;;;5224629;22;20395;-80
2024/04/13 14:18:13;;;;;;;6.68;3.05;;;23.20;1.00;;;;;;5131459;27;49322;-82
2024/04/13 14:24:58;;;;;;;6.25;3.15;;;23.20;1.00;;;;;;5255961;22;20038;-81
2024/04/13 14:40:41;;;;;;;;;;;;;;;;;;;;;
2024/04/13 14:47:30;;;;;;;5.07;2.80;;;23.40;99.90;;;;;;5171405;27;50457;-82
2024/04/13 14:51:04;;;;;;;6.60;3.15;;;23.20;1.00;;;;;;5162615;27;49900;-85
2024/04/13 14:54:13;;;;;;;5.75;2.97;;;23.10;1.00;;;;;;5185019;27;50410;-82
2024/04/13 14:57:34;;;;;;;7.63;3.45;;;23.20;1.00;;;;;;5107584;27;48070;-81
2024/04/13 15:00:09;;;;;;;4.68;2.80;;;23.10;1.00;;;;;;5068388;28;49656;-81
2024/04/13 15:03:04;;;;;;;4.78;2.50;;;23.00;1.00;;;;;;5067376;28;38014;-81
2024/04/13 15:34:04;;;;;;;5.45;3.10;;;22.00;1.00;;;;;;6212433;22;20031;-77
2024/04/13 15:39:33;;;;;;;8.18;3.13;;;22.00;1.00;;;;;;5850216;22;20005;-74
2024/04/13 15:41:59;;;;;;;7.68;3.13;;;21.90;38.90;;;;;;5173689;27;36955;-77
2024/04/13 15:44:46;;;;;;;6.13;3.20;;;21.80;1.00;;;;;;5172226;27;38340;-81
2024/04/13 15:47:45;;;;;;;6.65;3.03;;;21.80;99.90;;;;;;5167768;27;38556;-81
2024/04/13 15:54:07;;;;;;;8.60;3.17;;;21.70;99.90;;;;;;5170277;27;50842;-81
2024/04/13 15:56:36;;;;;;;5.32;2.50;;;21.50;99.90;;;;;;5156684;27;47620;-80
2024/04/13 15:59:02;;;;;;;5.97;3.17;;;21.60;1.00;;;;;;5192009;27;37196;-80
2024/04/13 16:01:28;;;;;;;20.27;7.22;;;21.50;1.00;;;;;;5199490;27;39633;-80
2024/04/13 16:03:55;;;;;;;27.60;10.52;;;21.50;1.00;;;;;;5193112;27;39125;-79
2024/04/13 16:06:28;;;;;;;35.65;15.93;;;21.60;99.90;;;;;;5186996;27;37485;-80
2024/04/13 16:09:04;;;;;;;279.02;114.68;;;21.60;1.00;;;;;;5171769;27;38808;-81
2024/04/13 16:12:12;;;;;;;17.27;6.07;;;21.50;1.00;;;;;;5221594;27;48170;-83
2024/04/13 16:15:04;;;;;;;9.95;3.75;;;21.40;1.00;;;;;;5187089;27;50346;-81
2024/04/13 16:24:24;;;;;;;5.18;2.35;;;20.90;99.90;;;;;;4408862;25;20008;-80
2024/04/13 16:30:57;;;;;;;6.35;2.83;;;20.70;1.00;;;;;;5076102;28;39912;-81
2024/04/13 16:37:22;;;;;;;9.65;3.33;;;20.90;1.00;;;;;;5195007;27;39838;-82
2024/04/13 16:40:29;;;;;;;7.90;2.70;;;20.90;1.00;;;;;;5197904;27;47809;-82
2024/04/13 16:51:03;;;;;;;7.88;2.55;;;20.40;1.00;;;;;;4973191;28;39476;-82
2024/04/13 17:04:07;;;;;;;7.18;2.20;;;20.40;99.90;;;;;;5029944;28;40142;-83
2024/04/13 17:06:43;;;;;;;3.72;2.05;;;20.40;44.30;;;;;;5041925;27;49351;-82
2024/04/13 17:12:42;;;;;;;7.00;2.20;;;20.40;99.90;;;;;;5114527;27;48628;-82
2024/04/13 17:15:37;;;;;;;3.45;1.90;;;20.40;1.00;;;;;;5138661;27;38711;-82
2024/04/13 17:19:04;;;;;;;6.68;2.70;;;20.40;44.30;;;;;;5089287;28;38617;-83
2024/04/13 17:21:54;;;;;;;6.25;2.92;;;20.30;99.90;;;;;;5038074;27;48275;-82
2024/04/13 17:24:46;;;;;;;6.57;2.80;;;20.20;99.90;;;;;;5246322;22;38403;-81
2024/04/13 17:27:14;;;;;;;6.38;2.75;;;20.10;1.00;;;;;;5161343;27;40495;-81
2024/04/13 17:29:47;;;;;;;8.38;3.05;;;20.10;1.00;;;;;;5139056;27;38548;-79
2024/04/13 17:32:13;;;;;;;10.25;3.03;;;20.00;1.00;;;;;;5149648;27;39799;-77
2024/04/13 17:34:42;;;;;;;6.60;2.85;;;19.90;1.00;;;;;;5136911;27;35939;-76
2024/04/13 17:37:11;;;;;;;8.40;2.53;;;19.70;1.00;;;;;;5160839;27;37905;-77
2024/04/13 17:39:37;;;;;;;7.43;3.03;;;19.70;99.90;;;;;;5133264;27;38345;-76
2024/04/13 17:42:03;;;;;;;8.70;3.05;;;19.70;99.90;;;;;;5137241;27;37860;-77
2024/04/13 17:44:32;;;;;;;7.85;3.30;;;19.60;99.90;;;;;;5137991;27;37116;-80
2024/04/13 17:46:58;;;;;;;8.77;3.50;;;19.60;99.90;;;;;;5143184;27;39003;-80
2024/04/13 18:23:15;;;;;;;6.50;2.20;;;18.40;99.90;;;;;;5468589;22;20029;-82
2024/04/13 18:25:51;;;;;;;5.00;1.50;;;18.30;37.70;;;;;;5196770;27;38713;-81
2024/04/13 18:28:48;;;;;;;4.68;1.67;;;18.20;1.00;;;;;;5181714;27;37888;-80
2024/04/13 18:31:17;;;;;;;10.63;1.85;;;18.00;99.90;;;;;;5179077;27;39420;-80
2024/04/13 18:33:44;;;;;;;7.90;1.58;;;18.00;1.00;;;;;;5199552;27;37300;-79
2024/04/13 18:36:12;;;;;;;2.58;1.50;;;17.90;1.00;;;;;;5188411;27;37965;-80
2024/04/13 18:38:40;;;;;;;4.32;1.65;;;17.80;1.00;;;;;;5191561;27;38942;-80
2024/04/13 18:41:09;;;;;;;5.32;1.55;;;17.70;1.00;;;;;;5183333;27;38487;-80
2024/04/13 18:43:35;;;;;;;3.83;1.45;;;17.70;1.00;;;;;;5193351;27;38854;-80
2024/04/13 18:46:11;;;;;;;4.93;1.40;;;17.60;1.00;;;;;;5194262;27;35428;-81
2024/04/13 18:48:43;;;;;;;8.70;1.90;;;17.50;1.00;;;;;;5185855;27;38204;-79
2024/04/13 18:51:10;;;;;;;7.07;1.70;;;17.50;1.00;;;;;;5169449;27;37878;-79
2024/04/13 18:53:39;;;;;;;7.85;1.83;;;17.40;1.00;;;;;;5175619;27;36631;-80
2024/04/13 18:56:08;;;;;;;3.67;1.45;;;17.40;99.90;;;;;;5171070;27;38053;-79
2024/04/13 18:58:35;;;;;;;5.40;1.55;;;17.40;1.00;;;;;;5178697;27;38092;-79
2024/04/13 19:01:16;;;;;;;5.43;1.73;;;17.40;99.90;;;;;;5189032;27;37010;-80
2024/04/13 19:03:42;;;;;;;5.07;1.60;;;17.40;99.90;;;;;;5177621;27;47998;-80
2024/04/13 19:06:22;;;;;;;2.60;1.67;;;17.40;99.90;;;;;;5169093;27;37578;-79
2024/04/13 19:08:50;;;;;;;8.20;2.65;;;17.50;99.90;;;;;;5199171;27;38926;-80
2024/04/13 19:11:18;;;;;;;4.85;1.52;;;17.50;1.00;;;;;;5192235;27;38598;-80
2024/04/13 19:14:02;;;;;;;5.72;1.77;;;17.40;1.00;;;;;;5193103;27;38644;-80
2024/04/13 19:17:07;;;;;;;7.57;1.92;;;17.30;1.00;;;;;;5130027;27;49151;-81
2024/04/13 19:20:19;;;;;;;6.00;2.50;;;17.30;99.90;;;;;;5131094;27;46497;-81
2024/04/13 19:22:46;;;;;;;7.70;2.17;;;17.20;99.90;;;;;;5131749;27;48789;-81
2024/04/13 19:25:12;;;;;;;4.38;1.95;;;17.10;99.90;;;;;;5146556;27;37938;-80
2024/04/13 19:27:46;;;;;;;7.35;2.17;;;17.10;99.90;;;;;;5122794;27;36087;-81
2024/04/13 19:30:16;;;;;;;14.20;2.42;;;17.10;99.90;;;;;;5138602;27;39906;-76
2024/04/13 19:32:59;;;;;;;6.57;2.05;;;17.00;1.00;;;;;;5128272;27;38004;-80
2024/04/13 19:35:51;;;;;;;8.10;2.50;;;17.00;1.00;;;;;;5175159;27;36951;-80
2024/04/13 19:38:21;;;;;;;9.23;2.42;;;16.90;1.00;;;;;;5114854;27;37306;-81
2024/04/13 19:41:05;;;;;;;9.88;3.03;;;16.90;1.00;;;;;;5157552;27;37887;-81
2024/04/13 19:43:32;;;;;;;6.10;2.05;;;16.80;1.00;;;;;;5185081;27;49262;-82
2024/04/13 19:46:22;;;;;;;4.68;2.58;;;16.80;1.00;;;;;;5155010;27;38564;-80
2024/04/13 19:49:16;;;;;;;8.27;2.60;;;16.70;1.00;;;;;;5163054;27;49627;-80
2024/04/13 19:51:48;;;;;;;6.93;2.78;;;16.60;1.00;;;;;;5107972;27;38663;-80
2024/04/13 19:54:38;;;;;;;8.10;2.47;;;16.50;1.00;;;;;;5177552;27;38759;-82
2024/04/13 19:57:07;;;;;;;7.25;2.10;;;16.50;1.00;;;;;;5163958;27;38441;-81
2024/04/13 19:59:36;;;;;;;5.78;2.13;;;16.50;1.00;;;;;;5176597;27;48150;-80
2024/04/13 20:02:03;;;;;;;6.18;1.85;;;16.40;1.00;;;;;;5194483;27;40104;-81
2024/04/13 20:04:31;;;;;;;9.18;2.80;;;16.40;1.00;;;;;;5181073;27;40336;-81
2024/04/13 20:07:03;;;;;;;6.63;2.70;;;16.30;1.00;;;;;;5198253;27;38649;-79
2024/04/13 20:09:41;;;;;;;5.65;2.75;;;16.30;1.00;;;;;;5158839;27;37601;-80
2024/04/13 20:12:16;;;;;;;7.88;2.53;;;16.20;1.00;;;;;;5196311;27;39035;-81
2024/04/13 20:18:40;;;;;;;6.45;2.60;;;16.20;1.00;;;;;;5154132;27;38345;-80
2024/04/13 20:20:22;;;;;;;8.57;3.03;;;16.10;1.00;;;;;;5183578;27;38735;-81
2024/04/13 20:22:51;;;;;;;6.00;2.08;;;16.10;1.00;;;;;;5179778;27;37648;-79
2024/04/13 20:25:25;;;;;;;6.45;2.28;;;16.00;1.00;;;;;;5163253;27;38907;-80
2024/04/13 20:28:31;;;;;;;7.45;2.22;;;15.90;1.00;;;;;;5198706;27;38637;-81
2024/04/13 20:31:37;;;;;;;7.82;3.30;;;15.90;1.00;;;;;;5185685;27;50292;-81
2024/04/13 20:34:23;;;;;;;7.32;2.67;;;15.80;1.00;;;;;;5189487;27;49806;-80
2024/04/13 20:36:55;;;;;;;7.47;2.60;;;15.70;99.90;;;;;;5191969;27;37146;-81
2024/04/13 20:39:22;;;;;;;;;;;15.70;1.00;;;;;;5186127;27;39577;-81
2024/04/13 20:41:52;;;;;;;7.22;2.03;;;15.70;99.90;;;;;;5188488;27;39214;-80
2024/04/13 20:44:19;;;;;;;7.97;1.70;;;15.70;1.00;;;;;;5174085;27;38437;-78
2024/04/13 20:46:45;;;;;;;8.10;2.00;;;15.70;27.50;;;;;;5174296;27;37333;-78
2024/04/13 20:49:11;;;;;;;6.45;2.13;;;15.70;1.00;;;;;;5181962;27;37441;-78
2024/04/13 20:51:40;;;;;;;7.30;1.77;;;15.60;99.90;;;;;;5158488;27;36207;-78
2024/04/13 20:54:06;;;;;;;6.13;1.70;;;15.60;1.00;;;;;;5169468;27;39503;-78
2024/04/13 20:56:32;;;;;;;8.50;2.10;;;15.60;1.00;;;;;;5167523;27;38494;-78
2024/04/13 20:58:58;;;;;;;7.13;2.17;;;15.50;1.00;;;;;;5160252;27;37868;-79
2024/04/13 21:01:24;;;;;;;9.32;2.83;;;15.40;99.90;;;;;;5162595;27;36851;-78
2024/04/13 21:03:50;;;;;;;7.50;2.60;;;15.40;99.90;;;;;;5171576;27;39745;-78
2024/04/13 21:06:31;;;;;;;8.52;2.03;;;15.30;1.00;;;;;;5181122;27;37177;-79
2024/04/13 21:09:36;;;;;;;9.40;2.33;;;15.20;99.90;;;;;;5144428;27;39506;-81
2024/04/13 21:12:39;;;;;;;7.30;2.50;;;15.10;99.90;;;;;;5080461;27;50436;-82
2024/04/13 21:15:57;;;;;;;10.77;3.00;;;15.10;1.00;;;;;;5648515;22;49968;-82
2024/04/13 21:18:54;;;;;;;10.63;2.88;;;15.00;1.00;;;;;;5167007;27;37929;-81
2024/04/13 21:21:56;;;;;;;8.73;2.58;;;15.00;1.00;;;;;;5177684;27;38743;-82
2024/04/13 21:24:56;;;;;;;9.38;2.88;;;14.90;1.00;;;;;;5207372;27;38585;-81
2024/04/13 21:27:53;;;;;;;8.60;2.78;;;14.90;99.90;;;;;;5171824;27;40353;-81
2024/04/13 21:30:31;;;;;;;12.73;2.20;;;14.80;99.90;;;;;;5162805;27;38927;-82
2024/04/13 21:33:50;;;;;;;9.93;2.72;;;14.90;99.90;;;;;;5172576;27;39130;-83
2024/04/13 21:36:27;;;;;;;13.93;3.15;;;14.80;99.90;;;;;;5161205;27;38686;-82
2024/04/13 21:39:27;;;;;;;12.73;3.22;;;14.80;1.00;;;;;;5196985;27;41699;-82
2024/04/13 21:42:06;;;;;;;10.68;3.00;;;14.70;1.00;;;;;;5138832;27;48846;-81
2024/04/13 21:48:01;;;;;;;10.50;2.83;;;14.60;1.00;;;;;;5359395;22;20013;-81
2024/04/13 21:54:14;;;;;;;16.00;3.58;;;14.70;99.90;;;;;;5214145;26;50826;-82
2024/04/13 21:57:26;;;;;;;10.23;3.22;;;14.60;99.90;;;;;;5184985;27;39811;-82
2024/04/13 22:00:39;;;;;;;12.57;3.20;;;14.70;1.00;;;;;;5164206;27;49153;-82
2024/04/13 22:04:06;;;;;;;10.10;3.13;;;14.70;1.00;;;;;;5092513;27;49971;-81
2024/04/13 22:10:18;;;;;;;12.27;3.30;;;14.70;1.00;;;;;;4929266;28;51872;-81
2024/04/13 22:12:53;;;;;;;12.63;4.03;;;14.70;1.00;;;;;;4979148;28;50192;-81
2024/04/13 22:19:02;;;;;;;15.60;3.95;;;14.60;1.00;;;;;;5156048;27;50821;-82
2024/04/13 22:21:36;;;;;;;11.50;3.50;;;14.60;20.60;;;;;;5198904;27;50239;-82
2024/04/13 22:24:05;;;;;;;16.58;4.25;;;14.60;77.40;;;;;;5191740;27;38675;-82
2024/04/13 22:33:37;;;;;;;15.55;3.83;;;14.60;99.90;;;;;;5185786;27;39646;-82
2024/04/13 22:36:30;;;;;;;16.42;4.38;;;14.50;99.90;;;;;;5200109;27;38961;-81
2024/04/13 22:39:22;;;;;;;17.23;4.18;;;14.50;99.90;;;;;;5179005;27;39755;-81
2024/04/13 22:42:01;;;;;;;15.85;3.95;;;14.50;99.90;;;;;;5152817;27;50559;-81
2024/04/13 22:44:40;;;;;;;14.93;3.92;;;14.50;99.90;;;;;;5186545;27;39471;-81
2024/04/13 22:47:14;;;;;;;13.43;4.13;;;14.40;99.90;;;;;;5133925;27;40287;-82
2024/04/13 22:50:03;;;;;;;13.10;3.55;;;14.50;1.00;;;;;;5142912;27;38001;-81
2024/04/13 22:52:41;;;;;;;19.20;4.60;;;14.40;1.00;;;;;;5051812;27;39326;-81
2024/04/13 22:55:22;;;;;;;14.60;3.85;;;14.40;1.00;;;;;;5170406;27;39554;-80
2024/04/13 22:58:07;;;;;;;16.85;3.85;;;14.40;1.00;;;;;;5138830;27;48813;-81
2024/04/13 23:00:57;;;;;;;15.85;4.32;;;14.30;1.00;;;;;;5162631;27;49260;-81
2024/04/13 23:03:39;;;;;;;12.68;3.90;;;14.40;1.00;;;;;;5144720;27;39584;-81
2024/04/13 23:06:41;;;;;;;16.50;4.57;;;14.30;1.00;;;;;;5160650;27;39768;-82
2024/04/13 23:09:52;;;;;;;15.98;4.00;;;14.30;1.00;;;;;;5087255;27;37550;-83
2024/04/13 23:13:34;;;;;;;14.18;3.67;;;14.30;1.00;;;;;;5113980;28;50337;-81
2024/04/13 23:16:52;;;;;;;14.10;3.60;;;14.30;1.00;;;;;;5060827;27;49557;-81
2024/04/13 23:20:09;;;;;;;16.35;3.58;;;14.30;1.00;;;;;;5046771;27;48609;-81
2024/04/13 23:23:32;;;;;;;19.05;3.83;;;14.20;1.00;;;;;;5071880;27;50406;-82
2024/04/13 23:26:14;;;;;;;15.93;3.95;;;14.20;1.00;;;;;;5127677;27;48074;-82
2024/04/13 23:53:56;;;;;;;12.90;3.85;;;14.20;1.00;;;;;;5218921;22;20012;-82
2024/04/13 23:57:21;;;;;;;20.88;4.57;;;14.20;1.00;;;;;;5151840;27;38401;-82
